Time;durP1;ratioP1;P1;durP2;ratioP2;P2;SDS_P1;SDS_P2;PMS_P1;PMS_P2;Temp;Humidity;BMP_temperature;BMP_pressure;BME280_temperature;BME280_humidity;BME280_pressure;Samples;Min_cycle;Max_cycle;Signal;HPM_P1;HPM_P2
2021/10/12 00:01:06;;;;;;;31.60;15.93;;;;;;;6.90;100.00;99841.69;5119962;28;20035;-77
2021/10/12 00:03:50;;;;;;;25.25;15.25;;;;;;;6.92;100.00;99840.81;5119943;28;20036;-77
2021/10/12 00:06:35;;;;;;;29.20;15.55;;;;;;;6.94;100.00;99840.78;5104732;28;20050;-77
2021/10/12 00:09:20;;;;;;;29.95;17.08;;;;;;;7.01;100.00;99837.22;5119804;28;20051;-76
2021/10/12 00:12:05;;;;;;;27.42;15.73;;;;;;;6.94;100.00;99831.22;5119760;28;20326;-77
2021/10/12 00:14:49;;;;;;;31.75;16.13;;;;;;;7.00;100.00;99830.31;5119778;28;20039;-76
2021/10/12 00:17:34;;;;;;;23.70;14.32;;;;;;;6.96;100.00;99819.06;5119547;28;20365;-77
2021/10/12 00:20:18;;;;;;;26.50;16.73;;;;;;;6.97;100.00;99823.38;5118871;28;20081;-76
2021/10/12 00:23:06;;;;;;;26.80;15.40;;;;;;;7.15;100.00;99808.44;5104478;28;20035;-76
2021/10/12 00:25:50;;;;;;;23.63;14.95;;;;;;;7.16;100.00;99808.44;5118919;28;20093;-77
2021/10/12 00:28:35;;;;;;;23.40;14.88;;;;;;;7.14;100.00;99806.72;5118552;28;20370;-77
2021/10/12 00:31:19;;;;;;;25.92;16.02;;;;;;;7.09;100.00;99803.31;5119330;28;20039;-77
2021/10/12 00:34:04;;;;;;;28.75;15.82;;;;;;;7.23;100.00;99802.25;5119285;28;20040;-77
2021/10/12 00:36:48;;;;;;;23.92;13.07;;;;;;;7.22;100.00;99800.53;5119281;28;20035;-77
2021/10/12 00:39:35;;;;;;;27.10;15.15;;;;;;;7.28;100.00;99797.00;5118454;28;20044;-76
2021/10/12 00:42:19;;;;;;;26.23;15.40;;;;;;;7.24;100.00;99793.56;5119063;28;20051;-76
2021/10/12 00:45:07;;;;;;;21.98;13.60;;;;;;;7.29;100.00;99793.53;5119262;28;20050;-77
2021/10/12 00:47:59;;;;;;;28.60;15.88;;;;;;;7.26;100.00;99783.13;5118456;28;20051;-76
2021/10/12 00:50:44;;;;;;;30.15;16.42;;;;;;;7.32;100.00;99795.22;5118574;28;20043;-77
2021/10/12 00:53:29;;;;;;;29.45;17.45;;;;;;;7.31;100.00;99793.50;5118870;28;20126;-76
2021/10/12 00:56:14;;;;;;;26.08;15.32;;;;;;;7.30;100.00;99781.34;5118155;28;20055;-77
2021/10/12 00:58:58;;;;;;;29.88;15.35;;;;;;;7.31;100.00;99780.47;5103620;28;20046;-77
2021/10/12 01:01:43;;;;;;;25.65;14.98;;;;;;;7.22;100.00;99771.88;5118833;28;20039;-77
2021/10/12 01:04:27;;;;;;;26.73;15.95;;;;;;;7.29;100.00;99767.47;5118735;28;20048;-77
2021/10/12 01:07:11;;;;;;;28.80;16.10;;;;;;;7.26;100.00;99770.97;5118090;28;20032;-76
2021/10/12 01:09:56;;;;;;;28.13;16.08;;;;;;;7.30;100.00;99771.78;5118644;28;20373;-77
2021/10/12 01:12:41;;;;;;;27.67;14.60;;;;;;;7.33;100.00;99761.31;5118543;28;20062;-77
2021/10/12 01:15:25;;;;;;;24.60;13.57;;;;;;;7.36;100.00;99761.28;5117832;28;20043;-77
2021/10/12 01:18:13;;;;;;;32.00;15.43;;;;;;;7.41;100.00;99756.00;5118360;28;20055;-77
2021/10/12 01:20:58;;;;;;;24.52;14.93;;;;;;;7.38;100.00;99751.72;5118492;28;20040;-77
2021/10/12 01:23:42;;;;;;;32.22;17.70;;;;;;;7.32;100.00;99756.16;5118306;28;20044;-79
2021/10/12 01:26:27;;;;;;;24.45;14.45;;;;;;;7.29;100.00;99754.44;5117543;28;20040;-79
2021/10/12 01:29:15;;;;;;;28.15;14.85;;;;;;;7.29;100.00;99750.97;5117365;28;20059;-79
2021/10/12 01:31:59;;;;;;;27.60;17.15;;;;;;;7.24;100.00;99751.00;5118268;28;20043;-78
2021/10/12 01:34:43;;;;;;;28.48;16.42;;;;;;;7.24;100.00;99746.66;5118365;28;20046;-79
2021/10/12 01:37:29;;;;;;;33.17;20.15;;;;;;;7.26;100.00;99750.13;5117959;28;20432;-78
2021/10/12 01:40:15;;;;;;;28.00;18.52;;;;;;;7.22;100.00;99747.59;5117346;28;20323;-78
2021/10/12 01:43:00;;;;;;;33.22;18.23;;;;;;;7.33;100.00;99747.44;5117942;28;20043;-80
2021/10/12 01:45:44;;;;;;;30.83;18.13;;;;;;;7.27;100.00;99737.94;5117860;28;20358;-78
2021/10/12 01:48:28;;;;;;;30.38;17.88;;;;;;;7.37;100.00;99739.56;5117811;28;20333;-79
2021/10/12 01:51:13;;;;;;;33.20;18.70;;;;;;;7.20;100.00;99733.72;5117849;28;20460;-79
2021/10/12 01:53:59;;;;;;;30.25;16.65;;;;;;;7.31;100.00;99734.41;5117196;28;20047;-79
2021/10/12 01:56:45;;;;;;;30.00;17.90;;;;;;;7.29;100.00;99735.34;5117720;28;20046;-79
2021/10/12 01:59:30;;;;;;;27.63;17.40;;;;;;;7.28;100.00;99733.59;5116788;28;20039;-79
2021/10/12 02:02:14;;;;;;;26.40;16.98;;;;;;;7.34;100.00;99733.53;5116077;28;20123;-79
2021/10/12 02:04:59;;;;;;;28.38;18.27;;;;;;;7.24;100.00;99722.34;5102373;28;20040;-78
2021/10/12 02:07:43;;;;;;;34.90;20.65;;;;;;;7.19;100.00;99724.19;5117490;28;20329;-78
2021/10/12 02:10:28;;;;;;;32.97;18.33;;;;;;;7.23;100.00;99718.03;5117433;28;20032;-78
2021/10/12 02:13:13;;;;;;;30.65;18.55;;;;;;;7.26;100.00;99718.84;5116804;28;20043;-78
2021/10/12 02:15:57;;;;;;;30.02;17.63;;;;;;;7.31;100.00;99720.53;5116831;28;20131;-77
2021/10/12 02:18:41;;;;;;;23.98;16.10;;;;;;;7.29;100.00;99715.34;5117231;28;20035;-77
2021/10/12 02:21:25;;;;;;;27.77;16.52;;;;;;;7.35;100.00;99701.41;5117193;28;20036;-78
2021/10/12 02:24:10;;;;;;;30.83;17.33;;;;;;;7.29;100.00;99702.34;5116478;28;20039;-78
2021/10/12 02:26:54;;;;;;;26.30;16.00;;;;;;;7.38;100.00;99697.00;5117297;28;20075;-78
2021/10/12 02:29:39;;;;;;;26.55;16.63;;;;;;;7.32;100.00;99698.81;5117252;28;20093;-78
2021/10/12 02:32:24;;;;;;;25.58;16.85;;;;;;;7.25;100.00;99703.25;5116996;28;20043;-77
2021/10/12 02:35:08;;;;;;;25.17;14.98;;;;;;;7.34;100.00;99708.31;5116404;28;20043;-77
2021/10/12 02:37:53;;;;;;;29.63;15.48;;;;;;;7.41;100.00;99696.97;5116952;28;20096;-77
2021/10/12 02:40:37;;;;;;;22.73;13.43;;;;;;;7.40;100.00;99700.44;5116196;28;20098;-77
2021/10/12 02:43:22;;;;;;;24.65;12.85;;;;;;;7.39;100.00;99697.84;5116905;28;20169;-78
2021/10/12 02:46:06;;;;;;;25.30;13.88;;;;;;;7.49;100.00;99696.84;5116799;28;20040;-78
2021/10/12 02:48:50;;;;;;;22.27;13.40;;;;;;;7.54;100.00;99695.03;5116069;28;20347;-77
2021/10/12 02:51:34;;;;;;;21.00;13.80;;;;;;;7.43;100.00;99684.75;5116692;28;20043;-77
2021/10/12 02:54:18;;;;;;;29.70;15.07;;;;;;;7.46;100.00;99686.47;5115934;28;20036;-77
2021/10/12 02:57:03;;;;;;;22.52;14.20;;;;;;;7.46;100.00;99689.91;5116666;28;20092;-77
2021/10/12 02:59:47;;;;;;;19.80;12.77;;;;;;;7.52;100.00;99690.72;5116974;28;20044;-78
2021/10/12 03:02:32;;;;;;;26.75;13.45;;;;;;;7.44;100.00;99685.59;5116504;28;20092;-77
2021/10/12 03:05:16;;;;;;;26.05;15.80;;;;;;;7.44;100.00;99681.28;5116450;28;20492;-78
2021/10/12 03:08:01;;;;;;;22.13;13.30;;;;;;;7.43;100.00;99689.97;5116623;28;20051;-77
2021/10/12 03:10:45;;;;;;;24.20;13.88;;;;;;;7.38;100.00;99676.16;5116482;28;20345;-77
2021/10/12 03:13:30;;;;;;;32.95;14.85;;;;;;;7.38;100.00;99676.16;5116235;28;20421;-77
2021/10/12 03:16:14;;;;;;;21.10;13.07;;;;;;;7.40;100.00;99681.31;5101420;28;20071;-77
2021/10/12 03:18:58;;;;;;;19.70;12.23;;;;;;;7.41;100.00;99677.81;5116309;28;20044;-78
2021/10/12 03:21:54;;;;;;;20.30;12.60;;;;;;;7.33;100.00;99682.31;5115682;28;20054;-76
2021/10/12 03:24:39;;;;;;;16.95;10.65;;;;;;;7.40;100.00;99676.13;5115514;28;20044;-77
2021/10/12 03:27:24;;;;;;;16.88;11.10;;;;;;;7.40;100.00;99668.31;5115338;28;20043;-77
2021/10/12 03:30:09;;;;;;;21.85;12.55;;;;;;;7.37;100.00;99669.19;5115690;28;20040;-77
2021/10/12 03:32:53;;;;;;;23.48;13.05;;;;;;;7.35;100.00;99667.53;5116294;28;20035;-77
2021/10/12 03:35:45;;;;;;;19.42;11.23;;;;;;;7.36;100.00;99664.88;5115485;28;20044;-78
2021/10/12 03:38:29;;;;;;;20.05;13.15;;;;;;;7.30;100.00;99664.97;5116077;28;20051;-78
2021/10/12 03:41:14;;;;;;;24.85;13.90;;;;;;;7.32;100.00;99662.34;5116249;28;20055;-76
2021/10/12 03:43:58;;;;;;;20.45;13.85;;;;;;;7.37;100.00;99656.16;5116251;28;20118;-77
2021/10/12 03:46:43;;;;;;;18.23;11.48;;;;;;;7.33;100.00;99658.84;5115448;28;20040;-77
2021/10/12 03:49:27;;;;;;;18.35;11.45;;;;;;;7.34;100.00;99658.81;5115342;28;20403;-78
2021/10/12 03:52:11;;;;;;;19.58;11.18;;;;;;;7.36;100.00;99651.00;5116181;28;20039;-77
2021/10/12 03:54:55;;;;;;;14.55;10.57;;;;;;;7.30;100.00;99644.13;5115995;28;20048;-79
2021/10/12 03:57:40;;;;;;;18.15;11.05;;;;;;;7.36;100.00;99648.38;5115326;28;20044;-80
2021/10/12 04:00:24;;;;;;;16.27;9.95;;;;;;;7.36;100.00;99645.78;5115313;28;20038;-79
2021/10/12 04:03:08;;;;;;;16.67;10.43;;;;;;;7.35;100.00;99644.06;5115378;28;20032;-80
2021/10/12 04:05:53;;;;;;;16.27;10.38;;;;;;;7.33;100.00;99638.88;5116116;28;20063;-79
2021/10/12 04:08:38;;;;;;;22.48;11.20;;;;;;;7.38;100.00;99641.44;5115860;28;20044;-79
2021/10/12 04:11:23;;;;;;;17.17;9.60;;;;;;;7.31;100.00;99635.41;5115935;28;20097;-79
2021/10/12 04:14:07;;;;;;;16.55;9.95;;;;;;;7.32;100.00;99629.34;5115860;28;20059;-79
2021/10/12 04:16:52;;;;;;;19.63;11.00;;;;;;;7.29;100.00;99633.75;5115964;28;20048;-77
2021/10/12 04:19:36;;;;;;;16.27;9.45;;;;;;;7.37;100.00;99637.06;5115756;28;20043;-78
2021/10/12 04:22:21;;;;;;;14.90;9.57;;;;;;;7.35;100.00;99633.66;5115131;28;20044;-78
2021/10/12 04:25:06;;;;;;;15.63;9.00;;;;;;;7.32;100.00;99636.31;5116472;28;20039;-78
2021/10/12 04:27:53;;;;;;;14.15;8.82;;;;;;;7.37;100.00;99637.06;5104163;28;20051;-78
2021/10/12 04:30:43;;;;;;;18.17;10.23;;;;;;;7.30;100.00;99633.69;5119345;28;20046;-78
2021/10/12 04:33:27;;;;;;;17.67;11.05;;;;;;;7.31;100.00;99632.81;5119577;28;20125;-78
2021/10/12 04:36:12;;;;;;;16.25;9.93;;;;;;;7.35;100.00;99631.91;5118708;28;20043;-78
2021/10/12 04:38:56;;;;;;;13.45;8.40;;;;;;;7.32;100.00;99631.09;5119184;28;20043;-78
2021/10/12 04:41:41;;;;;;;19.02;8.32;;;;;;;7.30;100.00;99625.88;5119203;28;20043;-78
2021/10/12 04:44:27;;;;;;;15.68;7.68;;;;;;;7.32;100.00;99634.56;5118407;28;20067;-78
2021/10/12 04:47:11;;;;;;;15.73;7.32;;;;;;;7.23;100.00;99630.31;5119090;28;20433;-78
2021/10/12 04:49:56;;;;;;;15.23;6.90;;;;;;;7.16;100.00;99631.31;5118410;28;20050;-78
2021/10/12 04:52:43;;;;;;;13.52;7.28;;;;;;;7.17;100.00;99629.56;5118970;28;20039;-78
2021/10/12 04:55:29;;;;;;;12.82;6.43;;;;;;;7.11;100.00;99632.25;5118215;28;20075;-79
2021/10/12 04:58:14;;;;;;;15.35;6.60;;;;;;;7.13;100.00;99625.28;5118897;28;20031;-79
2021/10/12 05:00:59;;;;;;;9.63;5.57;;;;;;;7.16;100.00;99623.47;5118908;28;20433;-79
2021/10/12 05:03:43;;;;;;;10.32;5.00;;;;;;;7.11;100.00;99621.81;5118086;28;20100;-79
2021/10/12 05:06:27;;;;;;;13.82;5.00;;;;;;;6.91;100.00;99622.09;5117853;28;20039;-79
2021/10/12 05:09:12;;;;;;;10.23;4.32;;;;;;;6.92;100.00;99624.69;5103389;28;20059;-79
2021/10/12 05:11:57;;;;;;;11.10;5.13;;;;;;;6.89;100.00;99624.72;5119262;28;20036;-78
2021/10/12 05:14:41;;;;;;;7.32;4.00;;;;;;;6.91;100.00;99620.34;5118382;28;20031;-79
2021/10/12 05:17:27;;;;;;;8.68;3.72;;;;;;;6.92;100.00;99621.19;5116695;28;20065;-79
2021/10/12 05:20:11;;;;;;;12.93;5.05;;;;;;;6.93;100.00;99617.75;5116693;28;20429;-79
2021/10/12 05:22:56;;;;;;;10.60;6.35;;;;;;;6.92;100.00;99614.28;5116791;28;20058;-79
2021/10/12 05:25:41;;;;;;;7.32;4.38;;;;;;;6.93;100.00;99609.94;5116688;28;20047;-79
2021/10/12 05:28:25;;;;;;;5.75;3.53;;;;;;;7.00;100.00;99611.56;5116434;28;20051;-79
2021/10/12 05:31:10;;;;;;;5.75;3.35;;;;;;;6.98;100.00;99611.56;5117198;28;20039;-79
2021/10/12 05:33:54;;;;;;;7.60;3.60;;;;;;;7.10;100.00;99612.28;5117994;28;20043;-79
2021/10/12 05:36:39;;;;;;;8.10;3.78;;;;;;;7.07;100.00;99605.38;5118327;28;20057;-79
2021/10/12 05:39:24;;;;;;;8.63;3.30;;;;;;;7.13;100.00;99612.25;5116237;28;20054;-79
2021/10/12 05:42:08;;;;;;;8.65;3.60;;;;;;;7.14;100.00;99613.97;5115472;28;20323;-79
2021/10/12 05:44:52;;;;;;;5.47;3.08;;;;;;;7.17;100.00;99619.13;5115387;28;20449;-79
2021/10/12 05:47:37;;;;;;;7.80;3.75;;;;;;;7.28;100.00;99604.22;5115384;28;20036;-79
2021/10/12 05:50:21;;;;;;;8.13;3.83;;;;;;;7.23;100.00;99604.28;5116017;28;20048;-80
2021/10/12 05:56:03;;;;;;;10.75;4.55;;;;;;;7.33;100.00;99612.81;5117232;28;20051;-79
2021/10/12 05:58:51;;;;;;;12.32;4.53;;;;;;;7.24;100.00;99623.38;5117274;28;20044;-80
2021/10/12 06:01:36;;;;;;;9.05;3.80;;;;;;;7.31;100.00;99618.94;5103277;28;20039;-80
2021/10/12 06:04:21;;;;;;;13.48;3.55;;;;;;;7.19;100.00;99620.84;5117048;28;20043;-79
2021/10/12 06:07:05;;;;;;;8.80;4.50;;;;;;;7.27;99.83;99623.31;5117552;28;20058;-79
2021/10/12 06:09:49;;;;;;;9.82;3.60;;;;;;;7.35;99.11;99628.44;5118073;28;20428;-80
2021/10/12 06:12:33;;;;;;;8.30;4.70;;;;;;;7.39;98.64;99619.69;5118171;28;20040;-79
2021/10/12 06:15:18;;;;;;;11.23;3.65;;;;;;;7.39;98.14;99630.09;5117849;28;20490;-79
2021/10/12 06:18:04;;;;;;;11.77;4.90;;;;;;;7.42;97.94;99630.91;5116753;28;20044;-80
2021/10/12 06:20:49;;;;;;;7.57;3.72;;;;;;;7.40;98.15;99634.44;5117007;28;20044;-79
2021/10/12 06:23:34;;;;;;;8.57;2.90;;;;;;;7.42;98.00;99628.31;5117915;28;20040;-79
2021/10/12 06:26:18;;;;;;;10.30;2.58;;;;;;;7.45;98.81;99620.44;5117884;28;20093;-79
2021/10/12 06:29:03;;;;;;;6.95;3.20;;;;;;;7.47;98.99;99628.22;5116436;28;20062;-79
2021/10/12 06:31:47;;;;;;;9.63;3.42;;;;;;;7.46;98.66;99621.31;5117822;28;20039;-79
2021/10/12 06:34:31;;;;;;;7.78;3.72;;;;;;;7.42;97.91;99622.25;5116455;28;20044;-79
2021/10/12 06:37:16;;;;;;;8.73;3.47;;;;;;;7.55;98.20;99628.13;5117156;28;20048;-78
2021/10/12 06:40:00;;;;;;;10.07;3.63;;;;;;;7.62;96.11;99620.19;5116948;28;20039;-79
2021/10/12 06:42:45;;;;;;;9.82;4.18;;;;;;;7.75;95.08;99617.38;5117015;28;20051;-79
2021/10/12 06:45:30;;;;;;;25.50;13.23;;;;;;;7.78;92.62;99619.94;5116854;28;20058;-79
2021/10/12 06:48:14;;;;;;;13.93;8.48;;;;;;;7.84;91.80;99619.84;5116564;28;20048;-79
2021/10/12 06:50:58;;;;;;;13.52;6.80;;;;;;;8.12;91.72;99622.81;5116909;28;20040;-79
2021/10/12 06:53:46;;;;;;;8.07;5.95;;;;;;;8.27;90.79;99619.06;5116891;28;20379;-79
2021/10/12 06:56:32;;;;;;;8.98;3.85;;;;;;;8.40;90.71;99631.03;5102026;28;20047;-79
2021/10/12 06:59:16;;;;;;;7.70;3.55;;;;;;;8.50;90.33;99629.09;5116240;28;20040;-78
2021/10/12 07:02:01;;;;;;;9.15;3.17;;;;;;;8.61;88.51;99630.63;5117302;28;20123;-77
2021/10/12 07:04:45;;;;;;;12.30;3.60;;;;;;;8.51;88.74;99633.44;5115882;28;20039;-78
2021/10/12 07:07:31;;;;;;;8.52;3.53;;;;;;;8.54;89.42;99633.38;5116017;28;20442;-78
2021/10/12 07:10:16;;;;;;;4.78;2.60;;;;;;;8.81;88.69;99630.22;5115821;28;20035;-78
2021/10/12 07:13:00;;;;;;;7.70;2.42;;;;;;;8.96;88.71;99630.78;5115928;28;20047;-78
2021/10/12 07:15:45;;;;;;;10.30;2.75;;;;;;;9.08;87.78;99633.13;5115417;28;20046;-77
2021/10/12 07:18:29;;;;;;;7.15;3.03;;;;;;;9.10;86.48;99620.91;5113744;28;20035;-76
2021/10/12 07:21:13;;;;;;;8.30;3.92;;;;;;;9.31;86.11;99625.63;5113831;28;20039;-77
2021/10/12 07:23:58;;;;;;;14.05;3.80;;;;;;;9.51;84.97;99625.16;5114883;28;20433;-78
2021/10/12 07:26:42;;;;;;;11.05;3.25;;;;;;;9.39;84.18;99616.75;5114101;28;20039;-78
2021/10/12 07:29:26;;;;;;;8.20;3.17;;;;;;;9.26;83.70;99624.91;5114331;28;20056;-77
2021/10/12 07:32:12;;;;;;;6.45;3.30;;;;;;;9.64;83.83;99623.13;5114489;28;20227;-77
2021/10/12 07:34:56;;;;;;;9.65;3.60;;;;;;;9.27;82.09;99621.38;5113660;28;20369;-76
2021/10/12 07:37:42;;;;;;;23.33;11.70;;;;;;;10.06;80.45;99608.13;5114598;28;20093;-77
2021/10/12 07:40:27;;;;;;;8.85;3.72;;;;;;;10.04;80.87;99612.53;5114334;28;20039;-79
2021/10/12 07:43:11;;;;;;;6.97;3.10;;;;;;;10.14;80.83;99612.28;5115297;28;20040;-78
2021/10/12 07:45:55;;;;;;;6.70;2.95;;;;;;;10.47;79.38;99614.03;5116590;28;20051;-78
2021/10/12 07:48:40;;;;;;;6.88;2.72;;;;;;;10.82;78.05;99616.53;5116795;28;20044;-77
2021/10/12 07:51:25;;;;;;;7.18;3.97;;;;;;;10.08;79.36;99602.84;5115588;28;20088;-77
2021/10/12 07:54:15;;;;;;;12.30;5.30;;;;;;;10.14;81.11;99607.94;5116071;28;20044;-77
2021/10/12 07:56:59;;;;;;;7.68;3.70;;;;;;;10.35;80.49;99600.41;5116206;28;20373;-78
2021/10/12 07:59:45;;;;;;;20.92;8.50;;;;;;;10.74;78.94;99604.53;5101158;28;20055;-77
2021/10/12 08:02:29;;;;;;;19.05;8.60;;;;;;;10.01;80.57;99603.91;5120674;28;20039;-78
2021/10/12 08:05:14;;;;;;;13.55;6.15;;;;;;;9.91;80.71;99600.69;5105190;28;20044;-77
2021/10/12 08:07:58;;;;;;;10.65;3.80;;;;;;;10.12;81.15;99595.78;5120427;28;20047;-78
2021/10/12 08:10:43;;;;;;;13.50;4.72;;;;;;;9.94;82.00;99594.47;5119134;28;20168;-77
2021/10/12 08:13:28;;;;;;;9.40;3.90;;;;;;;9.76;82.13;99598.44;5119794;28;20047;-77
2021/10/12 08:16:18;;;;;;;11.48;4.93;;;;;;;9.64;81.85;99594.38;5119178;28;20050;-77
2021/10/12 08:19:06;;;;;;;7.68;3.47;;;;;;;9.72;81.96;99588.97;5120006;28;20044;-77
2021/10/12 08:21:51;;;;;;;10.65;4.53;;;;;;;9.60;81.61;99587.50;5120107;28;20055;-77
2021/10/12 08:24:35;;;;;;;16.35;5.88;;;;;;;9.82;81.33;99580.84;5119563;28;20409;-77
2021/10/12 08:27:20;;;;;;;14.18;4.40;;;;;;;10.12;81.46;99577.47;5104394;28;20104;-77
2021/10/12 08:30:07;;;;;;;11.80;4.43;;;;;;;11.05;75.76;99580.06;5120192;28;20043;-77
2021/10/12 08:32:52;;;;;;;13.95;5.05;;;;;;;10.60;75.97;99566.56;5119719;28;20421;-77
2021/10/12 08:35:36;;;;;;;14.07;5.72;;;;;;;11.03;75.52;99578.38;5118826;28;20040;-77
2021/10/12 08:38:21;;;;;;;16.17;6.13;;;;;;;10.90;76.13;99575.28;5119954;28;20040;-77
2021/10/12 08:41:05;;;;;;;18.80;5.18;;;;;;;10.44;76.97;99568.75;5118977;28;20043;-77
2021/10/12 08:43:54;;;;;;;7.00;2.63;;;;;;;10.23;77.10;99560.53;5119318;28;20096;-77
2021/10/12 08:46:40;;;;;;;6.00;2.67;;;;;;;10.40;78.11;99569.72;5119311;28;20112;-77
2021/10/12 08:49:24;;;;;;;7.95;3.58;;;;;;;10.24;78.71;99564.03;5104749;28;20043;-77
2021/10/12 08:52:08;;;;;;;9.85;4.20;;;;;;;10.14;78.91;99554.69;5119175;28;20064;-77
2021/10/12 08:54:55;;;;;;;18.15;6.40;;;;;;;10.16;77.06;99552.91;5119695;28;20043;-77
2021/10/12 08:57:43;;;;;;;13.38;5.10;;;;;;;10.08;76.46;99563.59;5119589;28;20051;-77
2021/10/12 09:00:29;;;;;;;12.93;4.03;;;;;;;10.73;74.43;99563.53;5119274;28;20441;-77
2021/10/12 09:06:04;;;;;;;8.45;3.95;;;;;;;10.63;72.67;99548.13;5119229;28;20067;-77
2021/10/12 09:09:05;;;;;;;6.68;2.67;;;;;;;10.88;72.40;99545.63;5118987;28;20060;-77
2021/10/12 09:11:53;;;;;;;8.10;2.53;;;;;;;10.88;72.64;99553.50;5118647;28;20040;-77
2021/10/12 09:15:10;;;;;;;9.98;5.43;;;;;;;10.92;71.45;99536.75;5118688;28;20460;-78
2021/10/12 09:17:55;;;;;;;9.93;4.80;;;;;;;10.72;72.81;99540.88;5092717;28;20055;-77
2021/10/12 09:20:39;;;;;;;6.22;2.53;;;;;;;10.77;72.45;99535.47;5118449;28;20047;-78
2021/10/12 09:23:25;;;;;;;4.97;2.53;;;;;;;11.85;69.01;99527.66;5117733;28;20035;-77
2021/10/12 09:26:26;;;;;;;3.53;1.83;;;;;;;12.12;67.28;99529.31;5117766;28;20047;-77
2021/10/12 09:29:24;;;;;;;2.42;1.48;;;;;;;12.67;64.88;99533.44;5117674;28;20066;-77
2021/10/12 09:32:09;;;;;;;3.28;1.63;;;;;;;12.91;62.25;99521.16;5118408;28;20445;-77
2021/10/12 09:35:02;;;;;;;3.42;1.70;;;;;;;13.22;60.99;99510.25;5103326;28;20417;-77
2021/10/12 09:38:09;;;;;;;4.00;1.25;;;;;;;13.53;61.11;99512.50;5117576;28;20433;-77
2021/10/12 09:41:07;;;;;;;4.22;1.40;;;;;;;13.74;57.77;99502.84;5117461;28;20054;-77
2021/10/12 09:44:04;;;;;;;6.10;1.42;;;;;;;13.89;59.18;99502.19;5118468;28;20039;-77
2021/10/12 09:46:51;;;;;;;6.68;2.45;;;;;;;14.31;57.87;99495.09;5117927;28;20040;-77
2021/10/12 09:49:36;;;;;;;7.07;1.88;;;;;;;14.02;58.45;99490.19;5118627;28;20413;-77
2021/10/12 09:52:21;;;;;;;15.43;7.57;;;;;;;14.13;57.83;99483.59;5118003;28;20357;-77
2021/10/12 09:55:05;;;;;;;8.80;4.25;;;;;;;15.12;58.23;99478.97;5118058;28;20035;-77
2021/10/12 09:57:50;;;;;;;4.93;2.28;;;;;;;15.06;56.98;99473.16;5103311;28;20063;-76
2021/10/12 10:00:35;;;;;;;2.92;1.02;;;;;;;15.13;55.93;99475.41;5117971;28;20039;-76
2021/10/12 10:03:20;;;;;;;3.67;1.40;;;;;;;14.18;57.92;99473.72;5118075;28;20043;-77
2021/10/12 10:06:10;;;;;;;2.35;0.88;;;;;;;13.93;57.30;99479.22;5117077;28;20379;-78
2021/10/12 10:08:57;;;;;;;6.30;1.05;;;;;;;13.69;57.52;99471.47;5117950;28;20039;-76
2021/10/12 10:11:44;;;;;;;3.85;1.45;;;;;;;14.11;56.78;99467.03;5117921;28;20074;-78
2021/10/12 10:14:30;;;;;;;5.03;0.98;;;;;;;14.57;57.33;99467.59;5117151;28;20047;-77
2021/10/12 10:17:15;;;;;;;3.97;1.42;;;;;;;14.60;58.25;99460.38;5117846;28;20082;-77
2021/10/12 10:20:04;;;;;;;5.65;1.77;;;;;;;14.95;56.61;99461.34;5117971;28;20046;-78
2021/10/12 10:22:50;;;;;;;5.28;2.05;;;;;;;14.14;55.56;99459.84;5116748;28;20410;-77
2021/10/12 10:25:40;;;;;;;3.80;1.05;;;;;;;15.11;52.79;99450.03;5116675;28;20054;-77
2021/10/12 10:28:25;;;;;;;3.67;1.00;;;;;;;15.03;53.09;99441.66;5116503;28;20055;-77
2021/10/12 10:31:09;;;;;;;1.65;0.90;;;;;;;15.37;51.78;99444.31;5117574;28;20044;-78
2021/10/12 10:33:53;;;;;;;3.15;0.95;;;;;;;15.70;53.21;99434.78;5117219;28;20044;-77
2021/10/12 10:36:38;;;;;;;4.22;0.95;;;;;;;15.75;53.18;99428.31;5117182;28;20048;-77
2021/10/12 10:39:38;;;;;;;5.43;1.27;;;;;;;15.27;53.05;99421.94;5117613;28;20115;-78
2021/10/12 10:42:25;;;;;;;3.10;0.98;;;;;;;14.01;57.15;99412.13;5116635;28;20055;-76
2021/10/12 10:45:11;;;;;;;4.20;1.30;;;;;;;13.68;57.39;99414.50;5117039;28;20035;-76
2021/10/12 10:48:02;;;;;;;3.30;1.52;;;;;;;14.05;55.32;99414.63;5117523;28;20047;-76
2021/10/12 10:50:47;;;;;;;7.97;4.10;;;;;;;13.92;56.13;99409.91;5117506;28;20090;-75
2021/10/12 10:53:37;;;;;;;5.57;3.55;;;;;;;14.20;55.93;99401.63;5117437;28;20040;-76
2021/10/12 10:56:22;;;;;;;4.10;2.00;;;;;;;13.41;59.38;99390.22;5116870;28;20360;-76
2021/10/12 10:59:24;;;;;;;2.83;1.38;;;;;;;13.76;58.63;99375.53;5102431;28;20102;-76
2021/10/12 11:02:30;;;;;;;4.93;2.40;;;;;;;12.84;59.65;99379.47;5116639;28;20035;-76
2021/10/12 11:05:35;;;;;;;4.60;1.60;;;;;;;12.72;58.81;99374.69;5116059;28;20357;-76
2021/10/12 11:08:24;;;;;;;6.22;1.45;;;;;;;12.55;60.40;99362.25;5115975;28;20429;-76
2021/10/12 11:11:09;;;;;;;4.30;1.38;;;;;;;12.32;61.83;99357.06;5116533;28;20046;-77
2021/10/12 11:13:53;;;;;;;5.50;1.63;;;;;;;12.19;62.37;99358.41;5117181;28;20044;-77
2021/10/12 11:16:38;;;;;;;5.35;1.90;;;;;;;11.98;63.60;99355.72;5101725;28;20043;-76
2021/10/12 11:19:23;;;;;;;8.38;3.88;;;;;;;11.53;64.97;99356.47;5117039;28;20035;-76
2021/10/12 11:22:07;;;;;;;6.75;2.75;;;;;;;11.46;67.25;99357.59;5117093;28;20058;-76
2021/10/12 11:24:53;;;;;;;5.85;2.63;;;;;;;11.01;66.83;99368.75;5116947;28;20040;-77
2021/10/12 11:27:46;;;;;;;2.97;1.35;;;;;;;11.28;67.87;99360.84;5116786;28;20048;-76
2021/10/12 11:30:36;;;;;;;6.63;1.98;;;;;;;11.33;68.47;99359.78;5116430;28;20035;-77
2021/10/12 11:33:32;;;;;;;3.13;1.55;;;;;;;11.37;70.06;99355.28;5116371;28;20100;-77
2021/10/12 11:36:24;;;;;;;5.18;2.13;;;;;;;11.25;69.58;99342.66;5120851;28;20044;-77
2021/10/12 11:39:09;;;;;;;4.38;2.20;;;;;;;11.39;71.02;99350.88;5119809;28;20047;-77
2021/10/12 11:42:01;;;;;;;4.72;2.50;;;;;;;11.60;71.35;99346.59;5119836;28;20039;-77
2021/10/12 11:44:50;;;;;;;13.93;4.35;;;;;;;11.62;71.53;99340.41;5119908;28;20040;-76
2021/10/12 11:47:35;;;;;;;13.77;6.03;;;;;;;12.03;70.72;99338.03;5120567;28;20074;-77
2021/10/12 11:50:19;;;;;;;13.35;5.93;;;;;;;11.88;70.48;99336.84;5120305;28;20088;-77
2021/10/12 11:53:04;;;;;;;11.15;5.38;;;;;;;11.52;71.37;99338.16;5119877;28;20036;-77
2021/10/12 11:55:48;;;;;;;11.52;3.88;;;;;;;11.43;73.41;99337.56;5120884;28;20062;-78
2021/10/12 11:58:32;;;;;;;8.07;5.20;;;;;;;11.35;75.83;99337.00;5119287;28;20043;-77
2021/10/12 12:01:31;;;;;;;12.50;4.28;;;;;;;11.27;74.55;99335.56;5119839;28;20047;-78
2021/10/12 12:04:45;;;;;;;9.02;4.15;;;;;;;11.31;74.21;99327.56;5120166;28;20421;-77
2021/10/12 12:07:34;;;;;;;10.27;4.70;;;;;;;10.93;74.46;99328.88;5117226;28;20052;-77
2021/10/12 12:10:18;;;;;;;11.70;5.35;;;;;;;10.92;74.41;99327.16;5119359;28;20427;-78
2021/10/12 12:13:03;;;;;;;6.82;3.42;;;;;;;10.55;78.85;99336.22;5119861;28;20475;-79
2021/10/12 12:15:49;;;;;;;3.83;1.90;;;;;;;9.93;82.11;99333.78;5119221;28;20046;-77
2021/10/12 12:18:39;;;;;;;5.05;2.65;;;;;;;10.03;84.54;99322.13;5119143;28;20141;-78
2021/10/12 12:21:31;;;;;;;5.88;1.92;;;;;;;9.98;84.99;99331.91;5119877;28;20345;-78
2021/10/12 12:24:23;;;;;;;6.00;3.08;;;;;;;9.83;85.30;99318.34;5104785;28;20121;-78
2021/10/12 12:27:07;;;;;;;4.65;1.50;;;;;;;10.19;84.83;99312.06;5104869;28;20055;-78
2021/10/12 12:30:28;;;;;;;3.45;1.70;;;;;;;10.44;85.63;99310.41;5120150;28;20402;-78
2021/10/12 12:33:13;;;;;;;8.13;1.75;;;;;;;10.29;87.21;99316.97;5119197;28;20126;-78
2021/10/12 12:36:02;;;;;;;4.70;1.88;;;;;;;10.05;85.66;99304.63;5119130;28;20031;-76
2021/10/12 12:38:47;;;;;;;6.13;2.10;;;;;;;10.14;86.72;99304.34;5119218;28;20426;-76
2021/10/12 12:41:39;;;;;;;5.32;2.28;;;;;;;10.04;87.43;99311.63;5119416;28;20040;-76
2021/10/12 12:44:25;;;;;;;;;;;;;;;9.69;87.64;99315.31;5120099;28;20039;-78
2021/10/12 12:47:13;;;;;;;5.65;2.72;;;;;;;9.53;87.99;99319.25;5118494;28;19924;-77
2021/10/12 12:50:12;;;;;;;4.75;1.80;;;;;;;9.33;88.50;99315.44;5118410;28;20126;-79
2021/10/12 12:53:00;;;;;;;6.80;2.60;;;;;;;9.36;87.95;99317.97;5115821;28;20039;-79
2021/10/12 12:55:45;;;;;;;7.78;2.45;;;;;;;9.39;90.47;99324.00;5118301;28;20055;-77
2021/10/12 12:58:36;;;;;;;6.05;2.38;;;;;;;9.35;90.75;99318.84;5118720;28;20383;-78
2021/10/12 13:01:22;;;;;;;6.45;2.15;;;;;;;9.05;90.99;99320.56;5117734;28;20047;-78